createdAt,value
2023-03-01T00:02:29.066Z,100945.72
2023-03-01T00:04:59.245Z,100944.16
2023-03-01T00:07:29.325Z,100942.59
2023-03-01T00:10:00.410Z,100943.56
2023-03-01T00:12:33.269Z,100938.41
2023-03-01T00:15:03.455Z,100944.69
2023-03-01T00:17:33.679Z,100943.09
2023-03-01T00:20:09.617Z,100938.78
2023-03-01T00:22:43.492Z,100930.06
2023-03-01T00:25:13.790Z,100928.38
2023-03-01T00:27:46.762Z,100924.94
2023-03-01T00:30:19.060Z,100925.22
2023-03-01T00:32:49.535Z,100919.47
2023-03-01T00:35:19.975Z,100922.28
2023-03-01T00:37:58.960Z,100923.41
2023-03-01T00:40:30.041Z,100920.34
2023-03-01T00:43:03.291Z,100919.13
2023-03-01T00:45:37.543Z,100927.25
2023-03-01T00:48:08.339Z,100921.34
2023-03-01T00:50:38.560Z,100924.16
2023-03-01T00:53:08.782Z,100922.44
2023-03-01T00:55:40.403Z,100918.19
2023-03-01T00:58:13.240Z,100917.34
2023-03-01T01:00:43.384Z,100913.88
2023-03-01T01:03:15.796Z,100913.81
2023-03-01T01:05:46.054Z,100927.75
2023-03-01T01:08:16.646Z,100914.72
2023-03-01T01:10:47.936Z,100916.44
2023-03-01T01:13:22.717Z,100907.59
2023-03-01T01:15:53.086Z,100905.00
2023-03-01T01:18:23.184Z,100910.22
2023-03-01T01:20:53.309Z,100901.66
2023-03-01T01:23:23.503Z,100904.34
2023-03-01T01:25:53.670Z,100897.50
2023-03-01T01:28:26.532Z,100899.25
2023-03-01T01:30:56.777Z,100904.56
2023-03-01T01:33:27.136Z,100896.72
2023-03-01T01:35:57.503Z,100901.81
2023-03-01T01:38:27.847Z,100891.19
2023-03-01T01:40:57.972Z,100899.75
2023-03-01T01:43:33.403Z,100889.28
2023-03-01T01:46:06.356Z,100885.81
2023-03-01T01:48:44.177Z,100890.09
2023-03-01T01:51:17.761Z,100883.16
2023-03-01T01:53:51.479Z,100882.28
2023-03-01T01:56:24.000Z,100879.69
2023-03-01T01:58:57.832Z,100874.38
2023-03-01T02:01:28.757Z,100878.75
2023-03-01T02:03:59.298Z,100874.25
2023-03-01T02:06:37.509Z,100876.16
2023-03-01T02:09:14.108Z,100866.84
2023-03-01T02:11:45.118Z,100867.59
2023-03-01T02:14:18.930Z,100873.59
2023-03-01T02:16:49.492Z,100870.97
2023-03-01T02:19:30.941Z,100870.13
2023-03-01T02:22:10.322Z,100867.44
2023-03-01T02:24:49.548Z,100862.22
2023-03-01T02:27:26.711Z,100866.72
2023-03-01T02:30:00.198Z,100868.50
2023-03-01T02:32:27.954Z,100874.56
2023-03-01T02:35:01.937Z,100866.78
2023-03-01T02:37:32.401Z,100874.03
2023-03-01T02:40:12.682Z,100870.44
2023-03-01T02:42:49.605Z,100870.31
2023-03-01T02:45:22.757Z,100868.78
2023-03-01T02:47:53.456Z,100875.00
2023-03-01T02:50:47.168Z,100875.06
2023-03-01T02:53:21.568Z,100882.00
2023-03-01T02:55:52.292Z,100880.34
2023-03-01T02:58:22.962Z,100872.63
2023-03-01T03:00:58.796Z,100876.09
2023-03-01T03:03:29.005Z,100871.53
2023-03-01T03:05:59.119Z,100860.78
2023-03-01T03:08:29.725Z,100860.00
2023-03-01T03:11:00.146Z,100858.47
2023-03-01T03:13:30.665Z,100849.78
2023-03-01T03:16:03.516Z,100858.59
2023-03-01T03:18:33.930Z,100850.03
2023-03-01T03:21:04.068Z,100842.81
2023-03-01T03:23:34.345Z,100853.00
2023-03-01T03:26:05.304Z,100851.66
2023-03-01T03:28:36.023Z,100856.09
2023-03-01T03:31:10.948Z,100852.75
2023-03-01T03:33:41.227Z,100851.00
2023-03-01T03:36:14.133Z,100848.50
2023-03-01T03:38:44.384Z,100849.59
2023-03-01T03:41:14.651Z,100852.31
2023-03-01T03:43:46.113Z,100846.91
2023-03-01T03:46:18.942Z,100850.50
2023-03-01T03:48:50.638Z,100845.34
2023-03-01T03:51:23.828Z,100853.31
2023-03-01T03:53:54.156Z,100841.81
2023-03-01T03:56:28.550Z,100845.78
2023-03-01T03:58:59.131Z,100839.97
2023-03-01T04:01:31.870Z,100840.94
2023-03-01T04:04:08.109Z,100850.78
2023-03-01T04:06:38.192Z,100847.06
2023-03-01T04:09:08.818Z,100849.63
2023-03-01T04:11:39.767Z,100843.50
2023-03-01T04:14:13.766Z,100843.53
2023-03-01T04:16:46.280Z,100840.03
2023-03-01T04:19:16.442Z,100846.28
2023-03-01T04:21:46.908Z,100840.31
2023-03-01T04:24:17.703Z,100843.59
2023-03-01T04:26:47.895Z,100845.50
2023-03-01T04:29:18.175Z,100845.38
2023-03-01T04:31:52.236Z,100843.50
2023-03-01T04:34:22.483Z,100847.69
2023-03-01T04:36:52.861Z,100843.31
2023-03-01T04:39:23.089Z,100848.53
2023-03-01T04:41:53.747Z,100845.75
2023-03-01T04:44:24.037Z,100855.28
2023-03-01T04:46:56.813Z,100856.03
2023-03-01T04:49:27.229Z,100852.66
2023-03-01T04:51:59.406Z,100856.09
2023-03-01T04:54:29.544Z,100861.94
2023-03-01T04:56:59.678Z,100858.16
2023-03-01T04:59:30.119Z,100862.34
2023-03-01T05:02:05.664Z,100856.47
2023-03-01T05:04:35.991Z,100855.59
2023-03-01T05:07:06.140Z,100856.75
2023-03-01T05:09:36.697Z,100853.06
2023-03-01T05:12:07.510Z,100853.13
2023-03-01T05:14:37.851Z,100845.03
2023-03-01T05:17:11.095Z,100849.28
2023-03-01T05:19:43.780Z,100859.75
2023-03-01T05:22:14.000Z,100850.03
2023-03-01T05:24:44.105Z,100850.88
2023-03-01T05:27:15.005Z,100862.88
2023-03-01T05:29:46.338Z,100854.91
2023-03-01T05:32:19.107Z,100855.63
2023-03-01T05:34:49.895Z,100854.66
2023-03-01T05:37:20.656Z,100859.81
2023-03-01T05:39:52.831Z,100857.25
2023-03-01T05:42:22.991Z,100859.81
2023-03-01T05:44:53.374Z,100860.34
2023-03-01T05:47:32.841Z,100863.47
2023-03-01T05:50:03.525Z,100858.97
2023-03-01T05:52:33.816Z,100863.09
2023-03-01T05:55:04.007Z,100867.16
2023-03-01T05:57:34.469Z,100858.94
2023-03-01T06:00:07.484Z,100866.53
2023-03-01T06:02:42.800Z,100857.72
2023-03-01T06:05:15.052Z,100865.34
2023-03-01T06:07:45.743Z,100871.84
2023-03-01T06:10:18.406Z,100868.44
2023-03-01T06:12:48.855Z,100865.63
2023-03-01T06:15:20.401Z,100858.28
2023-03-01T06:17:59.972Z,100851.44
2023-03-01T06:20:33.034Z,100854.09
2023-03-01T06:23:03.611Z,100861.97
2023-03-01T06:25:36.716Z,100867.66
2023-03-01T06:28:06.947Z,100860.44
2023-03-01T06:30:37.553Z,100869.03
2023-03-01T06:33:10.342Z,100861.25
2023-03-01T06:35:40.554Z,100860.28
2023-03-01T06:38:10.795Z,100858.25
2023-03-01T06:40:40.978Z,100861.25
2023-03-01T06:43:11.615Z,100855.06
2023-03-01T06:45:41.794Z,100867.09
2023-03-01T06:48:14.592Z,100865.63
2023-03-01T06:50:44.891Z,100867.91
2023-03-01T06:53:15.230Z,100868.19
2023-03-01T06:55:49.088Z,100860.06
2023-03-01T06:58:19.329Z,100859.84
2023-03-01T07:00:55.700Z,100865.13
2023-03-01T07:03:28.551Z,100856.97
2023-03-01T07:05:58.832Z,100856.28
2023-03-01T07:08:29.078Z,100858.53
2023-03-01T07:10:59.954Z,100855.75
2023-03-01T07:13:30.175Z,100848.88
2023-03-01T07:16:00.364Z,100855.59
2023-03-01T07:18:33.410Z,100842.78
2023-03-01T07:21:08.348Z,100848.72
2023-03-01T07:23:39.008Z,100844.53
2023-03-01T07:26:09.178Z,100832.13
2023-03-01T07:28:40.457Z,100851.00
2023-03-01T07:31:10.938Z,100852.69
2023-03-01T07:33:43.790Z,100846.59
2023-03-01T07:36:14.433Z,100847.88
2023-03-01T07:38:44.667Z,100840.72
2023-03-01T07:41:15.380Z,100844.38
2023-03-01T07:43:45.574Z,100840.59
2023-03-01T07:46:15.710Z,100840.66
2023-03-01T07:48:48.430Z,100837.22
2023-03-01T07:51:21.105Z,100837.19
2023-03-01T07:53:54.985Z,100838.16
2023-03-01T07:56:25.247Z,100834.06
2023-03-01T07:58:55.632Z,100842.13
2023-03-01T08:01:26.106Z,100840.53
2023-03-01T08:03:58.888Z,100833.19
2023-03-01T08:06:29.668Z,100843.56
2023-03-01T08:09:00.276Z,100836.25
2023-03-01T08:11:31.721Z,100830.03
2023-03-01T08:14:01.968Z,100832.28
2023-03-01T08:16:34.114Z,100831.34
2023-03-01T08:19:11.312Z,100829.47
2023-03-01T08:21:41.972Z,100825.34
2023-03-01T08:24:13.569Z,100825.84
2023-03-01T08:26:43.750Z,100826.75
2023-03-01T08:29:14.112Z,100804.56
2023-03-01T08:31:44.582Z,100818.97
2023-03-01T08:34:20.045Z,100809.19
2023-03-01T08:36:51.214Z,100816.22
2023-03-01T08:39:23.140Z,100809.63
2023-03-01T08:41:53.356Z,100805.22
2023-03-01T08:44:24.738Z,100815.09
2023-03-01T08:46:56.744Z,100806.44
2023-03-01T08:49:29.804Z,100799.94
2023-03-01T08:52:02.292Z,100799.53
2023-03-01T08:54:33.031Z,100805.50
2023-03-01T08:57:05.513Z,100800.84
2023-03-01T08:59:38.405Z,100802.06
2023-03-01T09:02:08.996Z,100795.72
2023-03-01T09:04:42.029Z,100795.97
2023-03-01T09:07:12.800Z,100790.41
2023-03-01T09:09:44.086Z,100795.47
2023-03-01T09:12:14.370Z,100795.78
2023-03-01T09:14:44.531Z,100788.00
2023-03-01T09:17:14.745Z,100783.66
2023-03-01T09:19:47.666Z,100785.56
2023-03-01T09:22:20.790Z,100787.31
2023-03-01T09:24:51.011Z,100788.41
2023-03-01T09:27:21.168Z,100779.31
2023-03-01T09:29:51.640Z,100775.81
2023-03-01T09:32:21.994Z,100784.97
2023-03-01T09:35:09.983Z,100781.50
2023-03-01T09:37:45.730Z,100767.28
2023-03-01T09:40:20.180Z,100768.75
2023-03-01T09:42:58.960Z,100771.06
2023-03-01T09:45:37.022Z,100768.75
2023-03-01T09:48:10.211Z,100775.88
2023-03-01T09:50:47.884Z,100766.13
2023-03-01T09:53:20.815Z,100760.97
2023-03-01T09:55:58.632Z,100766.03
2023-03-01T09:58:53.107Z,100759.88
2023-03-01T10:01:35.984Z,100762.91
2023-03-01T10:04:21.236Z,100758.97
2023-03-01T10:07:02.143Z,100759.59
2023-03-01T10:09:37.069Z,100758.03
2023-03-01T10:12:13.108Z,100754.41
2023-03-01T10:14:48.985Z,100745.91
2023-03-01T10:17:31.708Z,100742.94
2023-03-01T10:20:25.416Z,100735.97
2023-03-01T10:22:58.292Z,100731.25
2023-03-01T10:25:42.508Z,100732.09
2023-03-01T10:28:21.708Z,100724.91
2023-03-01T10:30:52.739Z,100720.19
2023-03-01T10:33:26.282Z,100711.13
2023-03-01T10:35:56.682Z,100700.44
2023-03-01T10:38:30.700Z,100709.94
2023-03-01T10:41:03.676Z,100698.84
2023-03-01T10:43:48.321Z,100704.88
2023-03-01T10:46:30.085Z,100695.25
2023-03-01T10:49:19.139Z,100690.22
2023-03-01T10:51:52.261Z,100687.50
2023-03-01T10:54:28.942Z,100680.19
2023-03-01T10:57:01.623Z,100679.84
2023-03-01T10:59:33.661Z,100671.06
2023-03-01T11:02:27.254Z,100668.97
2023-03-01T11:05:02.553Z,100662.50
2023-03-01T11:07:33.026Z,100656.25
2023-03-01T11:10:16.088Z,100660.56
2023-03-01T11:12:48.718Z,100645.59
2023-03-01T11:15:31.503Z,100642.75
2023-03-01T11:18:13.525Z,100639.78
2023-03-01T11:20:45.911Z,100636.00
2023-03-01T11:23:18.123Z,100637.75
2023-03-01T11:25:59.214Z,100630.75
2023-03-01T11:28:31.739Z,100628.41
2023-03-01T11:31:09.059Z,100629.38
2023-03-01T11:33:45.117Z,100626.72
2023-03-01T11:36:29.340Z,100617.41
2023-03-01T11:39:00.375Z,100619.69
2023-03-01T11:41:38.017Z,100615.56
2023-03-01T11:44:18.122Z,100612.13
2023-03-01T11:47:07.638Z,100610.47
2023-03-01T11:49:53.725Z,100610.03
2023-03-01T11:52:33.887Z,100602.34
2023-03-01T11:55:22.126Z,100597.47
2023-03-01T11:58:16.178Z,100587.25
2023-03-01T12:00:58.300Z,100591.19
2023-03-01T12:03:37.016Z,100591.59
2023-03-01T12:06:28.178Z,100577.78
2023-03-01T12:09:08.235Z,100577.75
2023-03-01T12:11:50.499Z,100576.78
2023-03-01T12:14:50.533Z,100582.38
2023-03-01T12:17:37.333Z,100568.13
2023-03-01T12:20:29.674Z,100566.22
2023-03-01T12:23:21.032Z,100563.06
2023-03-01T12:26:00.955Z,100554.25
2023-03-01T12:29:00.210Z,100558.13
2023-03-01T12:31:56.242Z,100556.16
2023-03-01T12:34:45.874Z,100552.44
2023-03-01T12:37:27.136Z,100552.91
2023-03-01T12:40:22.051Z,100551.94
2023-03-01T12:43:05.862Z,100553.34
2023-03-01T12:45:54.548Z,100540.97
2023-03-01T12:48:46.918Z,100532.84
2023-03-01T12:51:21.125Z,100528.66
2023-03-01T12:53:53.674Z,100529.22
2023-03-01T12:56:27.230Z,100535.91
2023-03-01T12:59:11.818Z,100535.94
2023-03-01T13:01:49.709Z,100526.91
2023-03-01T13:04:37.832Z,100521.09
2023-03-01T13:07:28.473Z,100523.41
2023-03-01T13:10:13.123Z,100509.94
2023-03-01T13:12:47.467Z,100507.16
2023-03-01T13:15:45.149Z,100512.72
2023-03-01T13:18:39.400Z,100519.59
2023-03-01T13:21:15.467Z,100514.53
2023-03-01T13:23:52.332Z,100510.19
2023-03-01T13:26:22.666Z,100503.53
2023-03-01T13:29:02.282Z,100507.41
2023-03-01T13:32:05.068Z,100502.94
2023-03-01T13:34:53.092Z,100509.63
2023-03-01T13:37:34.635Z,100504.59
2023-03-01T13:40:44.614Z,100503.31
2023-03-01T13:43:36.835Z,100499.66
2023-03-01T13:46:15.166Z,100500.44
2023-03-01T13:48:48.627Z,100497.28
2023-03-01T13:51:18.853Z,100491.31
2023-03-01T13:53:51.966Z,100489.19
2023-03-01T13:56:27.982Z,100489.94
2023-03-01T13:59:02.255Z,100489.38
2023-03-01T14:01:34.114Z,100489.22
2023-03-01T14:04:06.368Z,100494.47
2023-03-01T14:06:38.699Z,100495.91
2023-03-01T14:09:19.132Z,100492.53
2023-03-01T14:12:16.335Z,100489.91
2023-03-01T14:15:03.601Z,100492.28
2023-03-01T14:17:46.322Z,100492.66
2023-03-01T14:20:22.667Z,100490.63
2023-03-01T14:22:57.449Z,100492.31
2023-03-01T14:25:33.712Z,100489.44
2023-03-01T14:28:07.975Z,100486.69
2023-03-01T14:30:44.523Z,100486.34
2023-03-01T14:33:24.645Z,100486.06
2023-03-01T14:36:05.922Z,100490.22
2023-03-01T14:38:41.115Z,100478.91
2023-03-01T14:41:17.276Z,100485.41
2023-03-01T14:43:49.849Z,100490.94
2023-03-01T14:46:25.092Z,100481.44
2023-03-01T14:48:57.166Z,100475.56
2023-03-01T14:51:27.710Z,100472.69
2023-03-01T14:53:58.469Z,100472.31
2023-03-01T14:56:46.715Z,100468.00
2023-03-01T14:59:17.303Z,100475.41
2023-03-01T15:01:48.559Z,100468.38
2023-03-01T15:04:19.297Z,100458.66
2023-03-01T15:06:50.308Z,100463.47
2023-03-01T15:09:21.514Z,100431.25
2023-03-01T15:11:57.371Z,100449.13
2023-03-01T15:14:44.130Z,100452.88
2023-03-01T15:17:34.273Z,100449.50
2023-03-01T15:20:10.112Z,100442.41
2023-03-01T15:22:49.702Z,100443.31
2023-03-01T15:25:22.332Z,100445.59
2023-03-01T15:27:59.788Z,100431.78
2023-03-01T15:30:35.903Z,100428.28
2023-03-01T15:33:31.287Z,100420.59
2023-03-01T15:36:03.386Z,100424.31
2023-03-01T15:38:39.353Z,100424.00
2023-03-01T15:41:26.697Z,100417.97
2023-03-01T15:43:59.494Z,100419.66
2023-03-01T15:46:33.484Z,100418.84
2023-03-01T15:49:06.294Z,100405.72
2023-03-01T15:51:38.930Z,100403.16
2023-03-01T15:54:18.919Z,100410.97
2023-03-01T15:56:49.168Z,100415.41
2023-03-01T15:59:23.335Z,100416.84
2023-03-01T16:01:53.281Z,100421.97
2023-03-01T16:04:26.624Z,100424.50
2023-03-01T16:06:58.019Z,100421.91
2023-03-01T16:09:29.747Z,100427.63
2023-03-01T16:11:59.953Z,100417.72
2023-03-01T16:14:32.810Z,100432.75
2023-03-01T16:17:02.921Z,100431.25
2023-03-01T16:19:35.823Z,100432.94
2023-03-01T16:22:08.536Z,100433.44
2023-03-01T16:24:39.319Z,100433.56
2023-03-01T16:27:09.448Z,100430.19
2023-03-01T16:29:42.602Z,100433.91
2023-03-01T16:32:13.275Z,100438.56
2023-03-01T16:34:43.646Z,100432.63
2023-03-01T16:37:13.824Z,100438.19
2023-03-01T16:39:44.174Z,100439.84
2023-03-01T16:42:14.477Z,100446.88
2023-03-01T16:44:47.345Z,100445.88
2023-03-01T16:47:19.895Z,100451.13
2023-03-01T16:49:55.881Z,100458.00
2023-03-01T16:52:26.248Z,100457.97
2023-03-01T16:54:56.537Z,100458.81
2023-03-01T16:57:26.713Z,100441.31
2023-03-01T17:00:00.231Z,100470.75
2023-03-01T17:02:30.575Z,100466.19
2023-03-01T17:05:00.982Z,100468.16
2023-03-01T17:07:34.319Z,100467.50
2023-03-01T17:10:04.974Z,100476.84
2023-03-01T17:12:35.779Z,100474.72
2023-03-01T17:15:10.758Z,100485.75
2023-03-01T17:17:43.901Z,100481.81
2023-03-01T17:20:15.714Z,100490.34
2023-03-01T17:22:46.227Z,100482.91
2023-03-01T17:25:19.297Z,100492.06
2023-03-01T17:27:54.460Z,100487.88
2023-03-01T17:30:27.390Z,100496.94
2023-03-01T17:32:59.450Z,100492.22
2023-03-01T17:35:30.314Z,100499.41
2023-03-01T17:38:00.550Z,100503.06
2023-03-01T17:40:32.371Z,100507.41
2023-03-01T17:43:02.726Z,100499.41
2023-03-01T17:45:39.857Z,100502.88
2023-03-01T17:48:10.818Z,100494.50
2023-03-01T17:50:42.212Z,100500.34
2023-03-01T17:53:14.582Z,100495.78
2023-03-01T17:55:52.380Z,100502.13
2023-03-01T17:58:23.328Z,100491.97
2023-03-01T18:00:56.247Z,100497.97
2023-03-01T18:03:26.565Z,100502.47
2023-03-01T18:05:58.533Z,100499.91
2023-03-01T18:08:29.080Z,100499.31
2023-03-01T18:11:02.010Z,100494.06
2023-03-01T18:13:32.156Z,100493.22
2023-03-01T18:16:08.427Z,100495.69
2023-03-01T18:18:39.304Z,100493.94
2023-03-01T18:21:10.332Z,100488.06
2023-03-01T18:23:40.667Z,100473.44
2023-03-01T18:26:15.824Z,100489.94
2023-03-01T18:28:47.758Z,100499.09
2023-03-01T18:31:22.851Z,100501.53
2023-03-01T18:33:55.427Z,100499.09
2023-03-01T18:36:27.834Z,100494.88
2023-03-01T18:39:00.097Z,100502.13
2023-03-01T18:41:33.150Z,100477.88
2023-03-01T18:44:05.186Z,100496.53
2023-03-01T18:46:40.334Z,100497.03
2023-03-01T18:49:11.563Z,100479.16
2023-03-01T18:51:42.839Z,100492.25
2023-03-01T18:54:16.555Z,100492.94
2023-03-01T18:56:46.806Z,100497.19
2023-03-01T18:59:17.139Z,100482.28
2023-03-01T19:01:50.321Z,100484.69
2023-03-01T19:04:22.877Z,100486.91
2023-03-01T19:06:53.905Z,100485.50
2023-03-01T19:09:24.322Z,100491.97
2023-03-01T19:11:58.973Z,100492.44
2023-03-01T19:14:34.677Z,100493.56
2023-03-01T19:17:07.503Z,100494.94
2023-03-01T19:19:41.531Z,100494.25
2023-03-01T19:22:11.841Z,100496.38
2023-03-01T19:24:42.265Z,100501.81
2023-03-01T19:27:12.755Z,100510.81
2023-03-01T19:29:43.705Z,100512.63
2023-03-01T19:32:16.600Z,100504.19
2023-03-01T19:34:46.913Z,100503.41
2023-03-01T19:37:17.274Z,100493.53
2023-03-01T19:39:48.204Z,100510.47
2023-03-01T19:42:18.525Z,100512.09
2023-03-01T19:44:49.331Z,100507.56
2023-03-01T19:47:22.191Z,100505.53
2023-03-01T19:49:53.376Z,100503.53
2023-03-01T19:52:24.408Z,100509.09
2023-03-01T19:55:03.882Z,100508.59
2023-03-01T19:57:38.602Z,100501.88
2023-03-01T20:00:13.447Z,100501.34
2023-03-01T20:02:49.287Z,100508.56
2023-03-01T20:05:19.679Z,100507.75
2023-03-01T20:07:51.156Z,100506.31
2023-03-01T20:10:21.752Z,100510.88
2023-03-01T20:12:54.311Z,100499.78
2023-03-01T20:15:24.523Z,100503.53
2023-03-01T20:17:57.379Z,100497.66
2023-03-01T20:20:28.567Z,100504.69
2023-03-01T20:22:59.886Z,100504.81
2023-03-01T20:25:30.496Z,100497.19
2023-03-01T20:28:00.960Z,100497.25
2023-03-01T20:30:31.638Z,100496.44
2023-03-01T20:33:04.548Z,100502.56
2023-03-01T20:35:36.226Z,100496.31
2023-03-01T20:38:06.826Z,100493.66
2023-03-01T20:40:38.935Z,100489.41
2023-03-01T20:43:09.109Z,100484.50
2023-03-01T20:45:41.205Z,100500.38
2023-03-01T20:48:14.237Z,100496.63
2023-03-01T20:50:45.634Z,100492.81
2023-03-01T20:53:16.043Z,100493.47
2023-03-01T20:55:46.454Z,100487.88
2023-03-01T20:58:16.933Z,100485.13
2023-03-01T21:00:47.180Z,100472.47
2023-03-01T21:03:20.101Z,100479.00
2023-03-01T21:05:50.239Z,100484.25
2023-03-01T21:08:20.634Z,100474.44
2023-03-01T21:10:56.255Z,100473.78
2023-03-01T21:13:27.528Z,100466.44
2023-03-01T21:15:58.605Z,100472.97
2023-03-01T21:18:32.633Z,100473.72
2023-03-01T21:21:02.960Z,100473.19
2023-03-01T21:23:34.979Z,100469.19
2023-03-01T21:26:08.975Z,100474.03
2023-03-01T21:28:40.863Z,100471.28
2023-03-01T21:31:13.389Z,100465.72
2023-03-01T21:33:48.363Z,100468.41
2023-03-01T21:36:19.410Z,100478.50
2023-03-01T21:38:51.065Z,100478.66
2023-03-01T21:41:25.635Z,100483.88
2023-03-01T21:43:57.615Z,100484.97
2023-03-01T21:46:30.905Z,100483.56
2023-03-01T21:49:04.920Z,100493.03
2023-03-01T21:51:36.612Z,100489.31
2023-03-01T21:54:07.183Z,100494.56
2023-03-01T21:56:39.375Z,100488.19
2023-03-01T21:59:10.706Z,100482.50
2023-03-01T22:01:41.623Z,100480.19
2023-03-01T22:04:15.545Z,100474.94
2023-03-01T22:06:47.940Z,100474.19
2023-03-01T22:09:19.784Z,100475.38
2023-03-01T22:11:51.363Z,100472.63
2023-03-01T22:14:22.489Z,100457.53
2023-03-01T22:16:53.742Z,100462.56
2023-03-01T22:19:28.828Z,100467.59
2023-03-01T22:21:59.093Z,100472.81
2023-03-01T22:24:29.836Z,100464.84
2023-03-01T22:27:03.062Z,100463.72
2023-03-01T22:29:33.840Z,100460.25
2023-03-01T22:32:05.041Z,100462.88
2023-03-01T22:34:38.407Z,100469.03
2023-03-01T22:37:08.591Z,100461.69
2023-03-01T22:39:38.975Z,100462.97
2023-03-01T22:42:09.945Z,100456.19
2023-03-01T22:44:40.535Z,100462.97
2023-03-01T22:47:13.027Z,100465.78
2023-03-01T22:49:49.017Z,100463.97
2023-03-01T22:52:19.347Z,100464.50
2023-03-01T22:54:50.162Z,100470.94
2023-03-01T22:57:20.351Z,100479.75
2023-03-01T22:59:51.165Z,100482.72
2023-03-01T23:02:22.879Z,100483.44
2023-03-01T23:04:56.436Z,100482.72
2023-03-01T23:07:26.652Z,100477.69
2023-03-01T23:10:00.396Z,100482.22
2023-03-01T23:12:33.601Z,100480.59
2023-03-01T23:15:03.877Z,100486.78
2023-03-01T23:17:34.224Z,100481.84
2023-03-01T23:20:10.562Z,100484.72
2023-03-01T23:22:46.861Z,100489.44
2023-03-01T23:25:17.223Z,100483.44
2023-03-01T23:27:47.471Z,100482.78
2023-03-01T23:30:18.323Z,100479.66
2023-03-01T23:32:48.624Z,100483.88
2023-03-01T23:35:21.612Z,100479.66
2023-03-01T23:37:51.982Z,100479.91
2023-03-01T23:40:23.630Z,100484.44
2023-03-01T23:42:53.810Z,100480.06
2023-03-01T23:45:23.899Z,100483.94
2023-03-01T23:47:55.144Z,100476.69
2023-03-01T23:50:28.581Z,100478.56
2023-03-01T23:52:58.896Z,100481.06
2023-03-01T23:55:30.795Z,100480.81
2023-03-01T23:58:03.396Z,100471.72
